< < Back
Terminal Aerodrome Forecast


Current Version              Previous Versions:   1  2  3  4  5  6  7  8  9  

Terminal Aerodrome Forecast

540
FTUS42 KMLB 062133 AAA
TAFDAB
TAF AMD
KDAB 062133Z 0622/0718 29008KT P6SM VCTS SCT025CB BKN060 OVC120
      TEMPO 0622/0624 VRB15G25KT 1SM +TSRA BKN025CB
     FM070200 VRB03KT P6SM SCT030 BKN250
     FM071400 22005KT P6SM FEW025 SCT250=



Latest METAR

116
SAUS80 KWBC 071500 RRA
MTRDAB
METAR KDAB 071453Z 25004KT 10SM FEW030 FEW080 FEW150 28/22 A3019 RMK AO2
SLP222 T02830217 50002


USA.gov is the U.S. government's official web portal to all federal, state and local government web resources and services.